sensor_id;sensor_type;location;lat;lon;timestamp;P1;durP1;ratioP1;P2;durP2;ratioP2
23129;SDS011;11734;51.046;13.778;2022-12-10T00:02:05;38.57;;;21.80;;
23129;SDS011;11734;51.046;13.778;2022-12-10T00:04:32;39.93;;;21.47;;
23129;SDS011;11734;51.046;13.778;2022-12-10T00:07:00;43.20;;;22.27;;
23129;SDS011;11734;51.046;13.778;2022-12-10T00:09:27;43.03;;;22.67;;
23129;SDS011;11734;51.046;13.778;2022-12-10T00:11:54;39.37;;;23.03;;
23129;SDS011;11734;51.046;13.778;2022-12-10T00:14:22;44.07;;;22.23;;
23129;SDS011;11734;51.046;13.778;2022-12-10T00:16:49;40.97;;;21.97;;
23129;SDS011;11734;51.046;13.778;2022-12-10T00:19:16;39.97;;;20.17;;
23129;SDS011;11734;51.046;13.778;2022-12-10T00:21:44;43.27;;;23.20;;
23129;SDS011;11734;51.046;13.778;2022-12-10T00:24:12;43.20;;;23.63;;
23129;SDS011;11734;51.046;13.778;2022-12-10T00:26:39;42.97;;;22.37;;
23129;SDS011;11734;51.046;13.778;2022-12-10T00:29:08;40.87;;;21.90;;
23129;SDS011;11734;51.046;13.778;2022-12-10T00:31:37;40.47;;;20.93;;
23129;SDS011;11734;51.046;13.778;2022-12-10T00:34:07;38.70;;;21.70;;
23129;SDS011;11734;51.046;13.778;2022-12-10T00:36:36;41.97;;;22.77;;
23129;SDS011;11734;51.046;13.778;2022-12-10T00:39:04;43.83;;;22.90;;
23129;SDS011;11734;51.046;13.778;2022-12-10T00:41:31;38.93;;;20.73;;
23129;SDS011;11734;51.046;13.778;2022-12-10T00:44:00;42.80;;;22.17;;
23129;SDS011;11734;51.046;13.778;2022-12-10T00:46:27;40.67;;;22.70;;
23129;SDS011;11734;51.046;13.778;2022-12-10T00:48:54;40.60;;;21.00;;
23129;SDS011;11734;51.046;13.778;2022-12-10T00:51:23;41.07;;;20.97;;
23129;SDS011;11734;51.046;13.778;2022-12-10T00:53:51;38.70;;;20.73;;
23129;SDS011;11734;51.046;13.778;2022-12-10T00:56:20;43.37;;;21.37;;
23129;SDS011;11734;51.046;13.778;2022-12-10T00:58:48;37.90;;;20.30;;
23129;SDS011;11734;51.046;13.778;2022-12-10T01:01:37;40.87;;;21.37;;
23129;SDS011;11734;51.046;13.778;2022-12-10T01:04:06;40.40;;;21.80;;
23129;SDS011;11734;51.046;13.778;2022-12-10T01:06:41;44.83;;;23.27;;
23129;SDS011;11734;51.046;13.778;2022-12-10T01:09:10;43.00;;;21.73;;
23129;SDS011;11734;51.046;13.778;2022-12-10T01:11:38;40.53;;;21.33;;
23129;SDS011;11734;51.046;13.778;2022-12-10T01:14:07;40.83;;;21.03;;
23129;SDS011;11734;51.046;13.778;2022-12-10T01:16:34;42.47;;;22.07;;
23129;SDS011;11734;51.046;13.778;2022-12-10T01:19:02;45.27;;;21.80;;
23129;SDS011;11734;51.046;13.778;2022-12-10T01:21:29;41.87;;;21.87;;
23129;SDS011;11734;51.046;13.778;2022-12-10T01:23:57;42.00;;;21.43;;
23129;SDS011;11734;51.046;13.778;2022-12-10T01:26:26;42.97;;;21.30;;
23129;SDS011;11734;51.046;13.778;2022-12-10T01:28:53;39.37;;;20.27;;
23129;SDS011;11734;51.046;13.778;2022-12-10T01:31:22;39.33;;;20.33;;
23129;SDS011;11734;51.046;13.778;2022-12-10T01:33:50;36.70;;;19.77;;
23129;SDS011;11734;51.046;13.778;2022-12-10T01:36:22;34.07;;;19.20;;
23129;SDS011;11734;51.046;13.778;2022-12-10T01:38:49;36.37;;;19.50;;
23129;SDS011;11734;51.046;13.778;2022-12-10T01:41:17;35.83;;;19.13;;
23129;SDS011;11734;51.046;13.778;2022-12-10T01:44:00;36.80;;;18.63;;
23129;SDS011;11734;51.046;13.778;2022-12-10T01:46:32;38.70;;;19.23;;
23129;SDS011;11734;51.046;13.778;2022-12-10T01:49:03;38.17;;;19.10;;
23129;SDS011;11734;51.046;13.778;2022-12-10T01:51:32;35.77;;;18.83;;
23129;SDS011;11734;51.046;13.778;2022-12-10T01:54:02;36.27;;;18.57;;
23129;SDS011;11734;51.046;13.778;2022-12-10T01:56:29;36.17;;;19.40;;
23129;SDS011;11734;51.046;13.778;2022-12-10T01:58:58;36.20;;;18.93;;
23129;SDS011;11734;51.046;13.778;2022-12-10T02:06:38;36.57;;;17.97;;
23129;SDS011;11734;51.046;13.778;2022-12-10T02:11:58;37.70;;;19.13;;
23129;SDS011;11734;51.046;13.778;2022-12-10T02:17:02;33.70;;;16.97;;
23129;SDS011;11734;51.046;13.778;2022-12-10T02:22:07;35.67;;;18.33;;
23129;SDS011;11734;51.046;13.778;2022-12-10T02:24:35;35.33;;;18.23;;
23129;SDS011;11734;51.046;13.778;2022-12-10T02:27:15;32.23;;;17.17;;
23129;SDS011;11734;51.046;13.778;2022-12-10T02:29:44;35.77;;;18.50;;
23129;SDS011;11734;51.046;13.778;2022-12-10T02:32:14;34.57;;;17.50;;
23129;SDS011;11734;51.046;13.778;2022-12-10T02:34:44;32.57;;;18.00;;
23129;SDS011;11734;51.046;13.778;2022-12-10T02:37:24;30.27;;;17.23;;
23129;SDS011;11734;51.046;13.778;2022-12-10T02:39:55;32.13;;;17.37;;
23129;SDS011;11734;51.046;13.778;2022-12-10T02:42:25;32.30;;;16.77;;
23129;SDS011;11734;51.046;13.778;2022-12-10T02:44:53;29.13;;;15.43;;
23129;SDS011;11734;51.046;13.778;2022-12-10T02:47:22;29.83;;;16.93;;
23129;SDS011;11734;51.046;13.778;2022-12-10T02:49:50;32.40;;;16.73;;
23129;SDS011;11734;51.046;13.778;2022-12-10T02:52:19;29.83;;;17.77;;
23129;SDS011;11734;51.046;13.778;2022-12-10T02:54:51;34.40;;;16.33;;
23129;SDS011;11734;51.046;13.778;2022-12-10T03:02:58;31.13;;;16.17;;
23129;SDS011;11734;51.046;13.778;2022-12-10T03:05:41;31.47;;;17.00;;
23129;SDS011;11734;51.046;13.778;2022-12-10T03:08:15;29.87;;;15.57;;
23129;SDS011;11734;51.046;13.778;2022-12-10T03:13:17;30.13;;;15.37;;
23129;SDS011;11734;51.046;13.778;2022-12-10T03:15:46;28.77;;;15.63;;
23129;SDS011;11734;51.046;13.778;2022-12-10T03:18:14;29.93;;;15.83;;
23129;SDS011;11734;51.046;13.778;2022-12-10T03:20:44;27.20;;;15.73;;
23129;SDS011;11734;51.046;13.778;2022-12-10T03:23:14;28.97;;;15.87;;
23129;SDS011;11734;51.046;13.778;2022-12-10T03:25:42;29.83;;;16.13;;
23129;SDS011;11734;51.046;13.778;2022-12-10T03:28:10;28.63;;;15.87;;
23129;SDS011;11734;51.046;13.778;2022-12-10T03:30:37;26.30;;;15.17;;
23129;SDS011;11734;51.046;13.778;2022-12-10T03:33:05;31.90;;;15.37;;
23129;SDS011;11734;51.046;13.778;2022-12-10T03:35:33;28.33;;;15.40;;
23129;SDS011;11734;51.046;13.778;2022-12-10T03:38:01;29.63;;;15.30;;
23129;SDS011;11734;51.046;13.778;2022-12-10T03:40:28;28.27;;;15.03;;
23129;SDS011;11734;51.046;13.778;2022-12-10T03:42:56;29.37;;;15.27;;
23129;SDS011;11734;51.046;13.778;2022-12-10T03:45:23;30.93;;;16.63;;
23129;SDS011;11734;51.046;13.778;2022-12-10T03:47:50;28.90;;;16.73;;
23129;SDS011;11734;51.046;13.778;2022-12-10T03:50:18;28.80;;;15.77;;
23129;SDS011;11734;51.046;13.778;2022-12-10T03:52:45;31.40;;;16.33;;
23129;SDS011;11734;51.046;13.778;2022-12-10T03:55:12;30.07;;;15.87;;
23129;SDS011;11734;51.046;13.778;2022-12-10T03:57:39;29.90;;;17.13;;
23129;SDS011;11734;51.046;13.778;2022-12-10T04:00:07;29.27;;;15.73;;
23129;SDS011;11734;51.046;13.778;2022-12-10T04:02:37;29.50;;;15.93;;
23129;SDS011;11734;51.046;13.778;2022-12-10T04:05:05;31.37;;;16.20;;
23129;SDS011;11734;51.046;13.778;2022-12-10T04:07:33;28.80;;;16.00;;
23129;SDS011;11734;51.046;13.778;2022-12-10T04:10:00;30.00;;;15.87;;
23129;SDS011;11734;51.046;13.778;2022-12-10T04:12:27;29.53;;;15.97;;
23129;SDS011;11734;51.046;13.778;2022-12-10T04:14:54;30.37;;;16.27;;
23129;SDS011;11734;51.046;13.778;2022-12-10T04:17:40;30.97;;;16.23;;
23129;SDS011;11734;51.046;13.778;2022-12-10T04:20:07;31.07;;;15.70;;
23129;SDS011;11734;51.046;13.778;2022-12-10T04:22:55;28.17;;;15.03;;
23129;SDS011;11734;51.046;13.778;2022-12-10T04:25:41;31.13;;;16.80;;
23129;SDS011;11734;51.046;13.778;2022-12-10T04:28:28;29.80;;;15.43;;
23129;SDS011;11734;51.046;13.778;2022-12-10T04:30:55;32.97;;;17.00;;
23129;SDS011;11734;51.046;13.778;2022-12-10T04:33:22;32.47;;;16.27;;
23129;SDS011;11734;51.046;13.778;2022-12-10T04:35:49;32.70;;;16.80;;
23129;SDS011;11734;51.046;13.778;2022-12-10T04:38:17;34.20;;;16.70;;
23129;SDS011;11734;51.046;13.778;2022-12-10T04:40:44;36.27;;;17.57;;
23129;SDS011;11734;51.046;13.778;2022-12-10T04:43:12;33.50;;;16.40;;
23129;SDS011;11734;51.046;13.778;2022-12-10T04:45:39;33.93;;;17.57;;
23129;SDS011;11734;51.046;13.778;2022-12-10T04:48:06;34.53;;;17.63;;
23129;SDS011;11734;51.046;13.778;2022-12-10T04:50:33;34.03;;;17.37;;
23129;SDS011;11734;51.046;13.778;2022-12-10T04:53:01;37.63;;;18.33;;
23129;SDS011;11734;51.046;13.778;2022-12-10T04:55:28;31.90;;;16.57;;
23129;SDS011;11734;51.046;13.778;2022-12-10T04:57:55;33.27;;;16.97;;
23129;SDS011;11734;51.046;13.778;2022-12-10T05:00:23;34.07;;;16.70;;
23129;SDS011;11734;51.046;13.778;2022-12-10T05:02:51;29.33;;;16.37;;
23129;SDS011;11734;51.046;13.778;2022-12-10T05:05:18;32.63;;;16.77;;
23129;SDS011;11734;51.046;13.778;2022-12-10T05:07:45;33.67;;;16.93;;
23129;SDS011;11734;51.046;13.778;2022-12-10T05:10:14;34.10;;;17.20;;
23129;SDS011;11734;51.046;13.778;2022-12-10T05:12:41;34.83;;;17.57;;
23129;SDS011;11734;51.046;13.778;2022-12-10T05:15:08;34.47;;;17.03;;
23129;SDS011;11734;51.046;13.778;2022-12-10T05:17:35;34.10;;;17.77;;
23129;SDS011;11734;51.046;13.778;2022-12-10T05:20:20;32.37;;;17.07;;
23129;SDS011;11734;51.046;13.778;2022-12-10T05:22:47;32.97;;;16.67;;
23129;SDS011;11734;51.046;13.778;2022-12-10T05:25:33;30.80;;;15.57;;
23129;SDS011;11734;51.046;13.778;2022-12-10T05:28:22;33.03;;;16.40;;
23129;SDS011;11734;51.046;13.778;2022-12-10T05:30:49;30.40;;;16.50;;
23129;SDS011;11734;51.046;13.778;2022-12-10T05:33:17;34.10;;;16.23;;
23129;SDS011;11734;51.046;13.778;2022-12-10T05:35:52;28.33;;;15.97;;
23129;SDS011;11734;51.046;13.778;2022-12-10T05:38:19;31.07;;;16.43;;
23129;SDS011;11734;51.046;13.778;2022-12-10T05:40:46;32.57;;;16.33;;
23129;SDS011;11734;51.046;13.778;2022-12-10T05:43:20;30.33;;;16.03;;
23129;SDS011;11734;51.046;13.778;2022-12-10T05:45:48;34.50;;;17.23;;
23129;SDS011;11734;51.046;13.778;2022-12-10T05:48:15;36.17;;;17.57;;
23129;SDS011;11734;51.046;13.778;2022-12-10T05:50:43;30.50;;;15.93;;
23129;SDS011;11734;51.046;13.778;2022-12-10T05:53:10;32.20;;;16.70;;
23129;SDS011;11734;51.046;13.778;2022-12-10T05:55:39;33.57;;;16.70;;
23129;SDS011;11734;51.046;13.778;2022-12-10T05:58:07;36.50;;;18.23;;
23129;SDS011;11734;51.046;13.778;2022-12-10T06:00:34;37.03;;;17.40;;
23129;SDS011;11734;51.046;13.778;2022-12-10T06:03:01;35.60;;;17.87;;
23129;SDS011;11734;51.046;13.778;2022-12-10T06:05:28;35.60;;;17.77;;
23129;SDS011;11734;51.046;13.778;2022-12-10T06:07:56;33.43;;;17.30;;
23129;SDS011;11734;51.046;13.778;2022-12-10T06:10:23;34.97;;;17.87;;
23129;SDS011;11734;51.046;13.778;2022-12-10T06:12:50;35.10;;;18.03;;
23129;SDS011;11734;51.046;13.778;2022-12-10T06:15:17;32.47;;;16.73;;
23129;SDS011;11734;51.046;13.778;2022-12-10T06:17:44;31.00;;;16.40;;
23129;SDS011;11734;51.046;13.778;2022-12-10T06:20:12;41.70;;;19.43;;
23129;SDS011;11734;51.046;13.778;2022-12-10T06:22:39;32.87;;;16.93;;
23129;SDS011;11734;51.046;13.778;2022-12-10T06:25:06;35.37;;;17.87;;
23129;SDS011;11734;51.046;13.778;2022-12-10T06:27:34;38.00;;;17.70;;
23129;SDS011;11734;51.046;13.778;2022-12-10T06:30:01;35.27;;;17.40;;
23129;SDS011;11734;51.046;13.778;2022-12-10T06:32:28;36.77;;;17.97;;
23129;SDS011;11734;51.046;13.778;2022-12-10T06:34:55;34.93;;;17.80;;
23129;SDS011;11734;51.046;13.778;2022-12-10T06:37:23;33.13;;;17.57;;
23129;SDS011;11734;51.046;13.778;2022-12-10T06:39:50;36.40;;;19.17;;
23129;SDS011;11734;51.046;13.778;2022-12-10T06:42:19;38.30;;;18.30;;
23129;SDS011;11734;51.046;13.778;2022-12-10T06:44:46;34.87;;;18.27;;
23129;SDS011;11734;51.046;13.778;2022-12-10T06:47:14;37.60;;;18.27;;
23129;SDS011;11734;51.046;13.778;2022-12-10T06:49:41;36.00;;;17.97;;
23129;SDS011;11734;51.046;13.778;2022-12-10T06:52:11;36.00;;;17.20;;
23129;SDS011;11734;51.046;13.778;2022-12-10T06:54:38;35.10;;;18.13;;
23129;SDS011;11734;51.046;13.778;2022-12-10T06:57:05;36.87;;;18.00;;
23129;SDS011;11734;51.046;13.778;2022-12-10T06:59:33;32.83;;;16.87;;
23129;SDS011;11734;51.046;13.778;2022-12-10T07:02:00;34.87;;;16.83;;
23129;SDS011;11734;51.046;13.778;2022-12-10T07:04:28;34.33;;;17.97;;
23129;SDS011;11734;51.046;13.778;2022-12-10T07:06:56;38.47;;;17.43;;
23129;SDS011;11734;51.046;13.778;2022-12-10T07:09:23;36.57;;;17.83;;
23129;SDS011;11734;51.046;13.778;2022-12-10T07:11:51;36.47;;;17.40;;
23129;SDS011;11734;51.046;13.778;2022-12-10T07:14:18;36.50;;;17.03;;
23129;SDS011;11734;51.046;13.778;2022-12-10T07:16:45;33.70;;;16.30;;
23129;SDS011;11734;51.046;13.778;2022-12-10T07:19:12;37.03;;;17.90;;
23129;SDS011;11734;51.046;13.778;2022-12-10T07:21:41;36.40;;;17.50;;
23129;SDS011;11734;51.046;13.778;2022-12-10T07:24:16;33.13;;;16.50;;
23129;SDS011;11734;51.046;13.778;2022-12-10T07:26:44;35.50;;;17.67;;
23129;SDS011;11734;51.046;13.778;2022-12-10T07:29:20;36.43;;;17.93;;
23129;SDS011;11734;51.046;13.778;2022-12-10T07:31:48;35.47;;;17.67;;
23129;SDS011;11734;51.046;13.778;2022-12-10T07:34:16;41.30;;;18.20;;
23129;SDS011;11734;51.046;13.778;2022-12-10T07:37:02;36.90;;;16.90;;
23129;SDS011;11734;51.046;13.778;2022-12-10T07:39:29;36.03;;;17.43;;
23129;SDS011;11734;51.046;13.778;2022-12-10T07:41:57;36.73;;;18.07;;
23129;SDS011;11734;51.046;13.778;2022-12-10T07:44:27;36.43;;;18.90;;
23129;SDS011;11734;51.046;13.778;2022-12-10T07:46:54;39.00;;;18.03;;
23129;SDS011;11734;51.046;13.778;2022-12-10T07:49:22;37.33;;;18.37;;
23129;SDS011;11734;51.046;13.778;2022-12-10T07:51:49;37.43;;;18.23;;
23129;SDS011;11734;51.046;13.778;2022-12-10T07:54:17;38.10;;;19.73;;
23129;SDS011;11734;51.046;13.778;2022-12-10T07:56:44;41.60;;;18.93;;
23129;SDS011;11734;51.046;13.778;2022-12-10T07:59:11;36.33;;;17.70;;
23129;SDS011;11734;51.046;13.778;2022-12-10T08:01:39;40.93;;;19.37;;
23129;SDS011;11734;51.046;13.778;2022-12-10T08:04:08;35.93;;;18.27;;
23129;SDS011;11734;51.046;13.778;2022-12-10T08:06:35;37.53;;;18.03;;
23129;SDS011;11734;51.046;13.778;2022-12-10T08:09:02;39.10;;;18.43;;
23129;SDS011;11734;51.046;13.778;2022-12-10T08:11:30;36.53;;;18.00;;
23129;SDS011;11734;51.046;13.778;2022-12-10T08:13:58;39.07;;;18.73;;
23129;SDS011;11734;51.046;13.778;2022-12-10T08:16:26;40.63;;;19.03;;
23129;SDS011;11734;51.046;13.778;2022-12-10T08:18:55;37.83;;;18.73;;
23129;SDS011;11734;51.046;13.778;2022-12-10T08:21:23;40.13;;;18.60;;
23129;SDS011;11734;51.046;13.778;2022-12-10T08:23:51;38.50;;;18.70;;
23129;SDS011;11734;51.046;13.778;2022-12-10T08:26:19;42.03;;;19.03;;
23129;SDS011;11734;51.046;13.778;2022-12-10T08:28:47;36.60;;;18.27;;
23129;SDS011;11734;51.046;13.778;2022-12-10T08:31:15;33.60;;;18.00;;
23129;SDS011;11734;51.046;13.778;2022-12-10T08:33:42;37.97;;;19.30;;
23129;SDS011;11734;51.046;13.778;2022-12-10T08:36:10;39.77;;;18.17;;
23129;SDS011;11734;51.046;13.778;2022-12-10T08:38:38;37.40;;;18.27;;
23129;SDS011;11734;51.046;13.778;2022-12-10T08:41:13;37.90;;;18.57;;
23129;SDS011;11734;51.046;13.778;2022-12-10T08:43:40;42.80;;;19.43;;
23129;SDS011;11734;51.046;13.778;2022-12-10T08:46:08;40.37;;;18.70;;
23129;SDS011;11734;51.046;13.778;2022-12-10T08:48:36;39.23;;;19.23;;
23129;SDS011;11734;51.046;13.778;2022-12-10T08:51:04;39.70;;;18.47;;
23129;SDS011;11734;51.046;13.778;2022-12-10T08:53:31;33.10;;;18.20;;
23129;SDS011;11734;51.046;13.778;2022-12-10T08:55:59;36.57;;;17.30;;
23129;SDS011;11734;51.046;13.778;2022-12-10T08:58:26;40.77;;;19.00;;
23129;SDS011;11734;51.046;13.778;2022-12-10T09:00:53;37.93;;;17.97;;
23129;SDS011;11734;51.046;13.778;2022-12-10T09:03:21;36.63;;;18.60;;
23129;SDS011;11734;51.046;13.778;2022-12-10T09:05:49;36.47;;;18.10;;
23129;SDS011;11734;51.046;13.778;2022-12-10T09:08:17;36.50;;;17.60;;
23129;SDS011;11734;51.046;13.778;2022-12-10T09:10:44;36.90;;;18.00;;
23129;SDS011;11734;51.046;13.778;2022-12-10T09:15:57;36.40;;;19.37;;
23129;SDS011;11734;51.046;13.778;2022-12-10T09:18:24;36.87;;;18.13;;
23129;SDS011;11734;51.046;13.778;2022-12-10T09:20:52;32.07;;;16.80;;
23129;SDS011;11734;51.046;13.778;2022-12-10T09:23:19;34.30;;;17.43;;
23129;SDS011;11734;51.046;13.778;2022-12-10T09:25:46;36.10;;;17.37;;
23129;SDS011;11734;51.046;13.778;2022-12-10T09:28:13;37.63;;;17.10;;
23129;SDS011;11734;51.046;13.778;2022-12-10T09:30:41;34.23;;;17.80;;
23129;SDS011;11734;51.046;13.778;2022-12-10T09:33:08;34.50;;;17.17;;
23129;SDS011;11734;51.046;13.778;2022-12-10T09:35:39;35.70;;;17.00;;
23129;SDS011;11734;51.046;13.778;2022-12-10T09:38:06;34.53;;;17.20;;
23129;SDS011;11734;51.046;13.778;2022-12-10T09:40:42;34.57;;;17.57;;
23129;SDS011;11734;51.046;13.778;2022-12-10T09:50:48;33.90;;;17.70;;
23129;SDS011;11734;51.046;13.778;2022-12-10T09:53:19;32.50;;;16.73;;
23129;SDS011;11734;51.046;13.778;2022-12-10T09:55:48;35.40;;;17.97;;
23129;SDS011;11734;51.046;13.778;2022-12-10T09:58:17;37.37;;;17.90;;
23129;SDS011;11734;51.046;13.778;2022-12-10T10:01:01;34.30;;;17.13;;
23129;SDS011;11734;51.046;13.778;2022-12-10T10:03:29;36.97;;;20.10;;
23129;SDS011;11734;51.046;13.778;2022-12-10T10:05:58;37.53;;;18.67;;
23129;SDS011;11734;51.046;13.778;2022-12-10T10:10:55;36.60;;;18.70;;
23129;SDS011;11734;51.046;13.778;2022-12-10T10:13:32;37.83;;;18.97;;
23129;SDS011;11734;51.046;13.778;2022-12-10T10:19:02;38.47;;;19.60;;
23129;SDS011;11734;51.046;13.778;2022-12-10T10:21:38;35.10;;;18.90;;
23129;SDS011;11734;51.046;13.778;2022-12-10T10:24:26;40.73;;;19.80;;
23129;SDS011;11734;51.046;13.778;2022-12-10T10:26:56;35.90;;;19.27;;
23129;SDS011;11734;51.046;13.778;2022-12-10T10:29:24;39.50;;;20.53;;
23129;SDS011;11734;51.046;13.778;2022-12-10T10:34:39;39.47;;;19.80;;
23129;SDS011;11734;51.046;13.778;2022-12-10T10:37:06;34.63;;;18.90;;
23129;SDS011;11734;51.046;13.778;2022-12-10T10:39:34;30.97;;;18.00;;
23129;SDS011;11734;51.046;13.778;2022-12-10T10:42:08;35.97;;;19.57;;
23129;SDS011;11734;51.046;13.778;2022-12-10T10:44:36;35.17;;;19.40;;
23129;SDS011;11734;51.046;13.778;2022-12-10T10:47:23;35.30;;;19.87;;
23129;SDS011;11734;51.046;13.778;2022-12-10T10:49:58;32.23;;;19.10;;
23129;SDS011;11734;51.046;13.778;2022-12-10T10:52:29;35.70;;;20.03;;
23129;SDS011;11734;51.046;13.778;2022-12-10T10:54:57;32.90;;;18.83;;
23129;SDS011;11734;51.046;13.778;2022-12-10T10:59:52;35.63;;;19.27;;
23129;SDS011;11734;51.046;13.778;2022-12-10T11:02:29;35.83;;;19.77;;
23129;SDS011;11734;51.046;13.778;2022-12-10T11:04:57;34.17;;;18.70;;
23129;SDS011;11734;51.046;13.778;2022-12-10T11:07:32;32.97;;;18.67;;
23129;SDS011;11734;51.046;13.778;2022-12-10T11:10:00;31.07;;;18.60;;
23129;SDS011;11734;51.046;13.778;2022-12-10T11:12:29;31.70;;;17.90;;
23129;SDS011;11734;51.046;13.778;2022-12-10T11:14:56;33.33;;;18.63;;
23129;SDS011;11734;51.046;13.778;2022-12-10T11:17:24;29.87;;;17.30;;
23129;SDS011;11734;51.046;13.778;2022-12-10T11:19:59;30.47;;;18.90;;
23129;SDS011;11734;51.046;13.778;2022-12-10T11:22:27;29.17;;;17.73;;
23129;SDS011;11734;51.046;13.778;2022-12-10T11:24:55;30.00;;;17.10;;
23129;SDS011;11734;51.046;13.778;2022-12-10T11:30:04;31.47;;;17.80;;
23129;SDS011;11734;51.046;13.778;2022-12-10T11:32:46;28.67;;;17.57;;
23129;SDS011;11734;51.046;13.778;2022-12-10T11:50:49;28.20;;;16.93;;
23129;SDS011;11734;51.046;13.778;2022-12-10T12:11:50;26.50;;;14.97;;
23129;SDS011;11734;51.046;13.778;2022-12-10T12:14:24;25.00;;;15.47;;
23129;SDS011;11734;51.046;13.778;2022-12-10T12:17:00;26.13;;;15.00;;
23129;SDS011;11734;51.046;13.778;2022-12-10T12:19:32;26.03;;;14.93;;
23129;SDS011;11734;51.046;13.778;2022-12-10T12:22:04;25.80;;;15.77;;
23129;SDS011;11734;51.046;13.778;2022-12-10T12:24:37;26.30;;;15.80;;
23129;SDS011;11734;51.046;13.778;2022-12-10T12:29:55;24.53;;;15.57;;
23129;SDS011;11734;51.046;13.778;2022-12-10T12:32:36;28.33;;;16.00;;
23129;SDS011;11734;51.046;13.778;2022-12-10T12:35:09;24.80;;;15.40;;
23129;SDS011;11734;51.046;13.778;2022-12-10T12:37:40;26.83;;;15.47;;
23129;SDS011;11734;51.046;13.778;2022-12-10T12:42:41;25.90;;;15.20;;
23129;SDS011;11734;51.046;13.778;2022-12-10T12:45:12;26.30;;;15.67;;
23129;SDS011;11734;51.046;13.778;2022-12-10T12:50:28;26.03;;;14.80;;
23129;SDS011;11734;51.046;13.778;2022-12-10T12:52:58;25.40;;;15.90;;
23129;SDS011;11734;51.046;13.778;2022-12-10T12:55:32;27.27;;;16.00;;
23129;SDS011;11734;51.046;13.778;2022-12-10T13:00:29;24.77;;;15.83;;
23129;SDS011;11734;51.046;13.778;2022-12-10T13:05:35;23.40;;;14.67;;
23129;SDS011;11734;51.046;13.778;2022-12-10T13:13:39;25.97;;;15.87;;
23129;SDS011;11734;51.046;13.778;2022-12-10T13:18:53;24.13;;;15.03;;
23129;SDS011;11734;51.046;13.778;2022-12-10T13:21:37;27.70;;;15.20;;
23129;SDS011;11734;51.046;13.778;2022-12-10T13:29:58;23.90;;;15.23;;
23129;SDS011;11734;51.046;13.778;2022-12-10T13:35:21;24.50;;;15.27;;
23129;SDS011;11734;51.046;13.778;2022-12-10T13:37:53;23.07;;;14.87;;
23129;SDS011;11734;51.046;13.778;2022-12-10T13:46:24;24.40;;;14.77;;
23129;SDS011;11734;51.046;13.778;2022-12-10T13:48:54;26.70;;;15.70;;
23129;SDS011;11734;51.046;13.778;2022-12-10T13:57:16;24.10;;;14.53;;
23129;SDS011;11734;51.046;13.778;2022-12-10T13:59:42;24.23;;;15.00;;
23129;SDS011;11734;51.046;13.778;2022-12-10T14:07:32;24.40;;;14.70;;
23129;SDS011;11734;51.046;13.778;2022-12-10T14:09:59;24.93;;;14.77;;
23129;SDS011;11734;51.046;13.778;2022-12-10T14:12:29;24.83;;;15.17;;
23129;SDS011;11734;51.046;13.778;2022-12-10T14:15:04;26.80;;;14.63;;
23129;SDS011;11734;51.046;13.778;2022-12-10T14:17:34;23.57;;;14.53;;
23129;SDS011;11734;51.046;13.778;2022-12-10T14:20:03;22.70;;;14.17;;
23129;SDS011;11734;51.046;13.778;2022-12-10T14:22:33;23.10;;;13.67;;
23129;SDS011;11734;51.046;13.778;2022-12-10T14:25:02;23.73;;;14.70;;
23129;SDS011;11734;51.046;13.778;2022-12-10T14:27:31;23.37;;;14.03;;
23129;SDS011;11734;51.046;13.778;2022-12-10T14:30:01;20.97;;;13.60;;
23129;SDS011;11734;51.046;13.778;2022-12-10T14:34:59;24.47;;;14.30;;
23129;SDS011;11734;51.046;13.778;2022-12-10T14:37:27;23.17;;;13.80;;
23129;SDS011;11734;51.046;13.778;2022-12-10T14:39:55;23.77;;;13.37;;
23129;SDS011;11734;51.046;13.778;2022-12-10T14:42:22;19.87;;;12.57;;
23129;SDS011;11734;51.046;13.778;2022-12-10T14:44:51;22.67;;;13.87;;
23129;SDS011;11734;51.046;13.778;2022-12-10T14:47:21;20.70;;;12.73;;
23129;SDS011;11734;51.046;13.778;2022-12-10T14:49:50;22.83;;;13.90;;
23129;SDS011;11734;51.046;13.778;2022-12-10T14:52:22;22.40;;;13.47;;
23129;SDS011;11734;51.046;13.778;2022-12-10T14:54:50;23.70;;;14.57;;
23129;SDS011;11734;51.046;13.778;2022-12-10T14:57:24;25.07;;;15.27;;
23129;SDS011;11734;51.046;13.778;2022-12-10T15:00:03;24.30;;;14.37;;
23129;SDS011;11734;51.046;13.778;2022-12-10T15:02:35;24.83;;;15.10;;
23129;SDS011;11734;51.046;13.778;2022-12-10T15:05:09;23.83;;;14.47;;
23129;SDS011;11734;51.046;13.778;2022-12-10T15:07:37;23.70;;;14.90;;
23129;SDS011;11734;51.046;13.778;2022-12-10T15:10:07;24.77;;;15.33;;
23129;SDS011;11734;51.046;13.778;2022-12-10T15:12:44;21.33;;;13.90;;
23129;SDS011;11734;51.046;13.778;2022-12-10T15:15:14;24.07;;;14.63;;
23129;SDS011;11734;51.046;13.778;2022-12-10T15:17:59;26.10;;;15.27;;
23129;SDS011;11734;51.046;13.778;2022-12-10T15:20:29;26.03;;;16.37;;
23129;SDS011;11734;51.046;13.778;2022-12-10T15:25:57;25.57;;;15.50;;
23129;SDS011;11734;51.046;13.778;2022-12-10T15:28:32;27.53;;;15.80;;
23129;SDS011;11734;51.046;13.778;2022-12-10T15:33:44;26.37;;;16.27;;
23129;SDS011;11734;51.046;13.778;2022-12-10T15:36:30;28.00;;;16.07;;
23129;SDS011;11734;51.046;13.778;2022-12-10T15:39:03;25.70;;;15.73;;
23129;SDS011;11734;51.046;13.778;2022-12-10T15:41:32;27.87;;;16.33;;
23129;SDS011;11734;51.046;13.778;2022-12-10T15:44:14;25.53;;;15.80;;
23129;SDS011;11734;51.046;13.778;2022-12-10T15:46:47;29.60;;;17.23;;
23129;SDS011;11734;51.046;13.778;2022-12-10T15:49:14;26.83;;;16.67;;
23129;SDS011;11734;51.046;13.778;2022-12-10T15:51:42;27.60;;;16.80;;
23129;SDS011;11734;51.046;13.778;2022-12-10T15:54:17;29.20;;;16.97;;
23129;SDS011;11734;51.046;13.778;2022-12-10T15:56:44;29.27;;;17.17;;
23129;SDS011;11734;51.046;13.778;2022-12-10T15:59:11;29.83;;;17.33;;
23129;SDS011;11734;51.046;13.778;2022-12-10T16:01:39;27.33;;;16.30;;
23129;SDS011;11734;51.046;13.778;2022-12-10T16:04:06;26.73;;;16.67;;
23129;SDS011;11734;51.046;13.778;2022-12-10T16:06:33;29.50;;;17.27;;
23129;SDS011;11734;51.046;13.778;2022-12-10T16:09:00;28.83;;;17.20;;
23129;SDS011;11734;51.046;13.778;2022-12-10T16:11:27;29.30;;;17.83;;
23129;SDS011;11734;51.046;13.778;2022-12-10T16:13:55;28.03;;;17.93;;
23129;SDS011;11734;51.046;13.778;2022-12-10T16:16:23;30.37;;;17.67;;
23129;SDS011;11734;51.046;13.778;2022-12-10T16:18:51;30.97;;;18.83;;
23129;SDS011;11734;51.046;13.778;2022-12-10T16:21:18;28.77;;;16.93;;
23129;SDS011;11734;51.046;13.778;2022-12-10T16:23:46;32.13;;;17.70;;
23129;SDS011;11734;51.046;13.778;2022-12-10T16:26:18;29.23;;;17.23;;
23129;SDS011;11734;51.046;13.778;2022-12-10T16:28:47;29.73;;;17.00;;
23129;SDS011;11734;51.046;13.778;2022-12-10T16:31:15;28.83;;;17.17;;
23129;SDS011;11734;51.046;13.778;2022-12-10T16:33:43;28.87;;;17.47;;
23129;SDS011;11734;51.046;13.778;2022-12-10T16:36:11;31.43;;;17.90;;
23129;SDS011;11734;51.046;13.778;2022-12-10T16:38:38;28.57;;;16.67;;